Time;durP1;ratioP1;P1;durP2;ratioP2;P2;SDS_P1;SDS_P2;PMS_P1;PMS_P2;Temp;Humidity;BMP_temperature;BMP_pressure;BME280_temperature;BME280_humidity;BME280_pressure;Samples;Min_cycle;Max_cycle;Signal;HPM_P1;HPM_P2
2023/03/06 00:00:10;;;;;;;4.03;2.60;;;11.60;43.60;;;;;;5087529;28;45455;-64
2023/03/06 00:02:36;;;;;;;3.20;2.57;;;11.60;43.70;;;;;;5087523;28;45294;-64
2023/03/06 00:05:05;;;;;;;5.70;2.87;;;11.60;43.60;;;;;;5087580;28;45399;-64
2023/03/06 00:07:32;;;;;;;6.33;3.20;;;11.60;43.70;;;;;;5087103;28;45334;-64
2023/03/06 00:09:59;;;;;;;4.97;2.70;;;11.60;43.70;;;;;;5087067;28;45380;-64
2023/03/06 00:12:26;;;;;;;4.43;2.97;;;11.60;43.70;;;;;;5087155;28;45463;-64
2023/03/06 00:14:53;;;;;;;3.23;2.50;;;11.60;43.70;;;;;;5087328;28;45582;-65
2023/03/06 00:17:20;;;;;;;4.10;2.63;;;11.60;43.70;;;;;;5087030;28;46700;-64
2023/03/06 00:19:46;;;;;;;3.30;2.73;;;11.60;43.70;;;;;;5087148;28;45280;-64
2023/03/06 00:22:15;;;;;;;3.47;2.47;;;11.60;43.70;;;;;;5087094;28;45403;-64
2023/03/06 00:24:42;;;;;;;3.93;2.80;;;11.60;43.70;;;;;;5087247;28;45372;-64
2023/03/06 00:27:09;;;;;;;3.60;2.60;;;11.60;43.70;;;;;;5086775;28;46328;-64
2023/03/06 00:29:35;;;;;;;3.53;2.40;;;11.50;43.70;;;;;;5086556;28;45307;-64
2023/03/06 00:32:02;;;;;;;4.13;2.77;;;11.50;43.70;;;;;;5086982;28;45302;-64
2023/03/06 00:34:29;;;;;;;3.73;2.80;;;11.50;43.70;;;;;;5087038;28;45383;-66
2023/03/06 00:36:56;;;;;;;4.80;2.87;;;11.50;43.60;;;;;;5086848;28;47403;-64
2023/03/06 00:39:24;;;;;;;4.13;2.43;;;11.50;43.70;;;;;;5085949;28;45355;-64
2023/03/06 00:41:51;;;;;;;3.17;2.47;;;11.50;43.70;;;;;;5086799;28;45383;-64
2023/03/06 00:44:18;;;;;;;4.03;2.77;;;11.50;43.70;;;;;;5087235;28;45409;-65
2023/03/06 00:46:45;;;;;;;4.47;2.50;;;11.50;43.70;;;;;;5086591;28;45371;-64
2023/03/06 00:49:12;;;;;;;3.57;2.50;;;11.50;43.70;;;;;;5086467;28;45272;-67
2023/03/06 00:51:39;;;;;;;5.00;3.00;;;11.50;43.70;;;;;;5086657;28;45300;-64
2023/03/06 00:54:06;;;;;;;3.30;2.43;;;11.50;43.70;;;;;;5086760;28;45474;-64
2023/03/06 00:56:34;;;;;;;5.00;2.87;;;11.50;43.70;;;;;;5086406;28;47379;-64
2023/03/06 00:59:01;;;;;;;4.20;2.90;;;11.50;43.70;;;;;;5086530;28;45424;-64
2023/03/06 01:01:28;;;;;;;2.87;2.20;;;11.50;43.70;;;;;;5086584;28;45438;-64
2023/03/06 01:03:54;;;;;;;3.20;2.60;;;11.40;43.60;;;;;;5086556;28;45258;-64
2023/03/06 01:06:21;;;;;;;2.73;2.53;;;11.40;43.60;;;;;;5086249;28;46348;-64
2023/03/06 01:08:48;;;;;;;3.30;2.30;;;11.40;43.60;;;;;;5086343;28;45447;-64
2023/03/06 01:11:15;;;;;;;3.70;2.50;;;11.40;43.60;;;;;;5086366;28;45246;-65
2023/03/06 01:13:44;;;;;;;3.83;2.67;;;11.40;43.60;;;;;;5086327;28;45428;-64
2023/03/06 01:16:11;;;;;;;5.83;3.13;;;11.40;43.60;;;;;;5085679;28;45258;-64
2023/03/06 01:18:38;;;;;;;3.27;2.40;;;11.40;43.60;;;;;;5086427;28;45440;-67
2023/03/06 01:21:05;;;;;;;2.60;2.40;;;11.40;43.60;;;;;;5086199;28;45313;-64
2023/03/06 01:23:32;;;;;;;5.53;3.03;;;11.40;43.60;;;;;;5086356;28;45363;-64
2023/03/06 01:25:59;;;;;;;3.90;2.53;;;11.40;43.60;;;;;;5086005;28;46569;-64
2023/03/06 01:28:26;;;;;;;4.17;2.53;;;11.40;43.60;;;;;;5086104;28;45268;-64
2023/03/06 01:30:54;;;;;;;4.37;2.40;;;11.40;43.60;;;;;;5086032;28;45331;-66
2023/03/06 01:33:21;;;;;;;4.07;2.67;;;11.40;43.60;;;;;;5086144;28;45496;-64
2023/03/06 01:35:48;;;;;;;4.93;3.20;;;11.40;43.60;;;;;;5085868;28;45438;-65
2023/03/06 01:38:15;;;;;;;2.90;2.33;;;11.40;43.70;;;;;;5085782;28;45381;-64
2023/03/06 01:40:42;;;;;;;3.77;2.93;;;11.30;43.60;;;;;;5086050;28;45350;-64
2023/03/06 01:43:10;;;;;;;4.60;3.00;;;11.30;43.60;;;;;;5085878;28;45376;-64
2023/03/06 01:46:14;;;;;;;3.83;2.63;;;11.30;43.60;;;;;;5085620;28;46680;-64
2023/03/06 01:48:42;;;;;;;2.70;2.27;;;11.30;43.60;;;;;;5085966;28;45367;-64
2023/03/06 01:51:09;;;;;;;2.80;2.40;;;11.30;43.60;;;;;;5085693;27;45311;-64
2023/03/06 01:53:35;;;;;;;4.37;2.47;;;11.30;43.60;;;;;;5085989;28;45330;-64
2023/03/06 01:56:02;;;;;;;4.33;2.73;;;11.30;43.60;;;;;;5085619;28;46542;-64
2023/03/06 01:58:29;;;;;;;4.23;2.60;;;11.30;43.60;;;;;;5085840;28;45451;-64
2023/03/06 02:00:56;;;;;;;3.37;2.70;;;11.30;43.60;;;;;;5085715;28;45127;-64
2023/03/06 02:03:24;;;;;;;4.43;2.77;;;11.30;43.60;;;;;;5085640;28;45631;-64
2023/03/06 02:05:52;;;;;;;3.43;2.57;;;11.30;43.50;;;;;;5085237;28;46658;-64
2023/03/06 02:08:20;;;;;;;3.60;2.70;;;11.30;43.60;;;;;;5085595;28;45363;-64
2023/03/06 02:10:55;;;;;;;2.97;2.63;;;11.30;43.60;;;;;;5085406;28;45297;-64
2023/03/06 02:13:22;;;;;;;4.43;2.70;;;11.30;43.60;;;;;;5085510;28;45389;-64
2023/03/06 02:15:49;;;;;;;5.40;2.80;;;11.30;43.50;;;;;;5085209;28;45337;-64
2023/03/06 02:18:16;;;;;;;4.33;2.70;;;11.20;43.50;;;;;;5085187;28;45911;-64
2023/03/06 02:20:44;;;;;;;2.60;2.40;;;11.20;43.50;;;;;;5085453;28;45258;-64
2023/03/06 02:23:14;;;;;;;3.17;2.47;;;11.20;43.50;;;;;;5085523;28;45404;-64
2023/03/06 02:25:44;;;;;;;2.63;2.20;;;11.20;43.50;;;;;;5085176;28;46391;-64
2023/03/06 02:28:12;;;;;;;6.00;2.80;;;11.20;43.50;;;;;;5085252;28;45359;-64
2023/03/06 02:30:39;;;;;;;3.57;2.30;;;11.20;43.50;;;;;;5085242;28;45303;-65
2023/03/06 02:33:06;;;;;;;4.90;2.47;;;11.20;43.50;;;;;;5085229;28;45326;-64
2023/03/06 02:35:34;;;;;;;4.33;2.80;;;11.20;43.50;;;;;;5084939;28;45711;-64
2023/03/06 02:38:04;;;;;;;3.70;2.30;;;11.20;43.50;;;;;;5085206;28;45364;-64
2023/03/06 02:40:31;;;;;;;2.47;2.27;;;11.20;43.50;;;;;;5085291;28;45207;-64
2023/03/06 02:42:59;;;;;;;3.53;2.50;;;11.20;43.50;;;;;;5085163;28;45448;-64
2023/03/06 02:45:31;;;;;;;2.50;2.20;;;11.20;43.50;;;;;;5084865;28;45831;-64
2023/03/06 02:47:58;;;;;;;3.37;2.57;;;11.20;43.50;;;;;;5085163;28;45577;-64
2023/03/06 02:50:25;;;;;;;2.93;2.30;;;11.20;43.60;;;;;;5085082;28;45246;-64
2023/03/06 02:52:52;;;;;;;3.23;2.20;;;11.20;43.50;;;;;;5082464;28;45320;-64
2023/03/06 02:55:19;;;;;;;3.73;2.53;;;11.10;43.50;;;;;;5084885;28;45336;-64
2023/03/06 02:57:46;;;;;;;4.80;2.60;;;11.10;43.50;;;;;;5084797;28;45143;-64
2023/03/06 03:00:15;;;;;;;3.50;2.30;;;11.10;43.50;;;;;;5084850;28;45242;-64
2023/03/06 03:02:41;;;;;;;4.73;2.47;;;11.10;43.50;;;;;;5086025;27;45355;-64
2023/03/06 03:05:09;;;;;;;2.70;2.40;;;11.10;43.50;;;;;;5088157;28;45679;-64
2023/03/06 03:07:35;;;;;;;3.50;2.57;;;11.10;43.50;;;;;;5088451;28;45195;-64
2023/03/06 03:10:02;;;;;;;5.47;2.40;;;11.10;43.50;;;;;;5088593;28;45415;-64
2023/03/06 03:12:29;;;;;;;5.00;2.60;;;11.10;43.50;;;;;;5088541;28;45313;-64
2023/03/06 03:14:56;;;;;;;2.90;2.40;;;11.10;43.50;;;;;;5087705;28;46653;-64
2023/03/06 03:17:25;;;;;;;3.50;2.37;;;11.10;43.50;;;;;;5085576;28;45523;-64
2023/03/06 03:19:51;;;;;;;5.23;2.57;;;11.10;43.50;;;;;;5088230;28;45301;-64
2023/03/06 03:22:18;;;;;;;3.37;2.27;;;11.10;43.50;;;;;;5088430;28;45417;-64
2023/03/06 03:24:45;;;;;;;4.30;2.90;;;11.10;43.50;;;;;;5087849;28;46591;-64
2023/03/06 03:27:12;;;;;;;3.40;2.20;;;11.10;44.10;;;;;;5087879;28;45301;-64
2023/03/06 03:29:39;;;;;;;4.50;3.10;;;11.10;43.50;;;;;;5087762;28;45285;-64
2023/03/06 03:32:06;;;;;;;4.43;2.53;;;11.10;43.50;;;;;;5087937;28;45335;-64
2023/03/06 03:34:35;;;;;;;3.40;2.30;;;11.10;43.50;;;;;;5087965;28;46596;-65
2023/03/06 03:37:01;;;;;;;4.47;2.73;;;11.10;43.50;;;;;;5087757;28;45340;-64
2023/03/06 03:39:28;;;;;;;3.10;2.40;;;11.10;43.50;;;;;;5087925;28;45461;-64
2023/03/06 03:41:55;;;;;;;4.17;2.87;;;11.10;43.50;;;;;;5088018;28;45591;-64
2023/03/06 03:44:22;;;;;;;3.03;2.73;;;11.10;43.50;;;;;;5087534;28;46300;-64
2023/03/06 03:46:49;;;;;;;4.23;2.50;;;11.00;43.40;;;;;;5087607;28;45367;-64
2023/03/06 03:49:16;;;;;;;2.43;2.20;;;11.00;43.40;;;;;;5087722;28;45345;-64
2023/03/06 03:51:44;;;;;;;3.07;2.40;;;11.00;43.40;;;;;;5087657;28;45366;-64
2023/03/06 03:54:11;;;;;;;2.43;2.23;;;11.00;43.50;;;;;;5087373;28;47453;-64
2023/03/06 03:56:39;;;;;;;3.60;2.60;;;11.00;43.40;;;;;;5087513;28;45258;-64
2023/03/06 03:59:05;;;;;;;3.07;2.30;;;11.00;43.40;;;;;;5087779;28;45351;-64
2023/03/06 04:01:33;;;;;;;4.30;2.20;;;11.00;43.40;;;;;;5087756;28;45386;-64
2023/03/06 04:04:00;;;;;;;3.57;2.57;;;11.00;43.40;;;;;;5087186;28;45740;-64
2023/03/06 04:06:26;;;;;;;4.67;2.43;;;11.00;43.40;;;;;;5087246;28;45314;-64
2023/03/06 04:08:55;;;;;;;4.50;2.60;;;11.00;43.40;;;;;;5087655;28;45235;-64
2023/03/06 04:11:22;;;;;;;2.50;2.10;;;11.00;43.50;;;;;;5087496;28;45445;-64
2023/03/06 04:13:49;;;;;;;3.13;2.37;;;11.00;43.40;;;;;;5086088;27;45328;-65
2023/03/06 04:16:15;;;;;;;4.60;2.40;;;11.00;43.50;;;;;;5086879;28;45221;-64
2023/03/06 04:18:42;;;;;;;4.87;2.93;;;11.00;43.40;;;;;;5087449;28;45208;-64
2023/03/06 04:21:09;;;;;;;3.33;2.60;;;11.00;43.40;;;;;;5087466;28;45408;-64
2023/03/06 04:23:36;;;;;;;3.77;2.60;;;11.00;43.40;;;;;;5086976;28;45352;-64
2023/03/06 04:26:04;;;;;;;3.93;2.43;;;11.00;43.40;;;;;;5087117;28;45392;-64
2023/03/06 04:28:31;;;;;;;2.23;2.00;;;11.00;43.40;;;;;;5087606;28;45386;-64
2023/03/06 04:30:58;;;;;;;3.30;2.43;;;11.00;43.40;;;;;;5087351;28;45233;-64
2023/03/06 04:33:25;;;;;;;3.10;2.70;;;10.90;43.40;;;;;;5086862;28;45647;-65
2023/03/06 04:35:52;;;;;;;4.20;2.50;;;10.90;43.30;;;;;;5087025;28;45416;-64
2023/03/06 04:38:19;;;;;;;3.50;2.47;;;10.90;43.40;;;;;;5087180;28;45284;-64
2023/03/06 04:40:46;;;;;;;3.70;2.50;;;10.90;43.40;;;;;;5087132;28;45419;-64
2023/03/06 04:43:14;;;;;;;3.87;2.37;;;10.90;43.40;;;;;;5086637;28;45323;-64
2023/03/06 04:45:41;;;;;;;3.57;2.60;;;10.90;44.00;;;;;;5086848;28;45397;-64
2023/03/06 04:48:08;;;;;;;3.07;2.43;;;10.90;43.30;;;;;;5086983;28;45370;-64
2023/03/06 04:50:36;;;;;;;3.63;2.37;;;10.90;43.40;;;;;;5087111;28;45246;-65
2023/03/06 04:53:03;;;;;;;4.33;2.20;;;10.90;43.30;;;;;;5087135;28;46495;-64
2023/03/06 04:55:30;;;;;;;4.00;2.40;;;10.90;43.40;;;;;;5087091;28;45449;-64
2023/03/06 04:57:57;;;;;;;4.57;2.30;;;10.90;43.40;;;;;;5087118;28;45421;-64
2023/03/06 05:00:29;;;;;;;3.57;2.60;;;10.90;43.30;;;;;;5087331;28;45423;-65
2023/03/06 05:02:56;;;;;;;4.47;2.90;;;10.90;43.40;;;;;;5086666;28;46812;-64
2023/03/06 05:05:23;;;;;;;3.30;2.53;;;10.90;43.40;;;;;;5086624;28;45503;-64
2023/03/06 05:07:50;;;;;;;3.37;2.33;;;10.90;43.30;;;;;;5086825;28;45290;-64
2023/03/06 05:10:17;;;;;;;3.40;2.47;;;10.90;43.40;;;;;;5086921;28;45285;-64
2023/03/06 05:12:44;;;;;;;3.13;2.57;;;10.90;43.40;;;;;;5086302;28;47291;-64
2023/03/06 05:15:12;;;;;;;5.47;2.47;;;10.90;43.40;;;;;;5086184;28;45349;-64
2023/03/06 05:17:40;;;;;;;3.73;2.63;;;10.90;43.40;;;;;;5086712;28;45304;-64
2023/03/06 05:20:08;;;;;;;3.23;2.30;;;10.90;43.40;;;;;;5086910;28;45389;-64
2023/03/06 05:22:35;;;;;;;3.87;2.40;;;10.80;43.30;;;;;;5086209;28;46573;-64
2023/03/06 05:25:03;;;;;;;5.27;2.40;;;10.80;43.30;;;;;;5085876;27;45428;-64
2023/03/06 05:27:30;;;;;;;4.00;3.00;;;10.80;43.30;;;;;;5086538;28;45230;-64
2023/03/06 05:29:57;;;;;;;4.97;2.70;;;10.80;43.40;;;;;;5086501;28;45227;-64
2023/03/06 05:32:24;;;;;;;4.27;2.50;;;10.80;43.40;;;;;;5086141;28;45281;-64
2023/03/06 05:34:52;;;;;;;4.33;2.93;;;10.80;43.40;;;;;;5086368;28;45457;-64
2023/03/06 05:37:19;;;;;;;4.43;2.40;;;10.80;43.30;;;;;;5086278;28;45514;-64
2023/03/06 05:39:46;;;;;;;3.57;2.73;;;10.80;43.40;;;;;;5086360;28;45372;-64
2023/03/06 05:42:13;;;;;;;4.87;3.20;;;10.80;43.40;;;;;;5086177;28;47688;-64
2023/03/06 05:44:40;;;;;;;4.60;2.50;;;10.80;43.40;;;;;;5085726;28;45412;-65
2023/03/06 05:47:08;;;;;;;3.83;2.63;;;10.80;43.40;;;;;;5086208;28;45385;-64
2023/03/06 05:49:35;;;;;;;4.90;2.63;;;10.80;43.40;;;;;;5086040;28;45115;-64
2023/03/06 05:52:04;;;;;;;5.37;3.10;;;10.80;43.40;;;;;;5085627;28;46677;-64
2023/03/06 05:54:31;;;;;;;3.63;2.87;;;10.80;43.40;;;;;;5085715;28;45480;-64
2023/03/06 05:56:58;;;;;;;4.60;2.93;;;10.80;43.40;;;;;;5085981;28;45403;-64
2023/03/06 05:59:26;;;;;;;4.30;2.60;;;10.80;43.40;;;;;;5085984;28;45506;-65
2023/03/06 06:01:54;;;;;;;3.83;2.60;;;10.80;43.40;;;;;;5085728;28;45260;-64
2023/03/06 06:04:21;;;;;;;3.17;2.60;;;10.80;43.40;;;;;;5085455;28;45427;-64
2023/03/06 06:06:51;;;;;;;4.40;2.90;;;10.80;43.40;;;;;;5085533;28;45441;-64
2023/03/06 06:09:20;;;;;;;3.50;2.57;;;10.80;43.40;;;;;;5085859;28;45174;-64
2023/03/06 06:11:48;;;;;;;3.60;2.50;;;10.80;43.40;;;;;;5085159;28;45316;-64
2023/03/06 06:14:14;;;;;;;3.73;2.83;;;10.80;43.40;;;;;;5085485;28;45490;-64
2023/03/06 06:16:41;;;;;;;3.73;2.67;;;10.80;43.30;;;;;;5085490;28;45329;-64
2023/03/06 06:19:08;;;;;;;3.03;2.60;;;10.80;43.40;;;;;;5085761;28;45311;-64
2023/03/06 06:21:35;;;;;;;3.83;2.80;;;10.80;43.40;;;;;;5085309;28;45360;-65
2023/03/06 06:24:02;;;;;;;3.63;2.57;;;10.80;43.40;;;;;;5085247;28;45377;-64
2023/03/06 06:26:31;;;;;;;4.50;2.60;;;10.80;43.40;;;;;;5085454;28;45360;-65
2023/03/06 06:28:57;;;;;;;3.07;2.37;;;10.70;43.30;;;;;;5085642;28;45451;-64
2023/03/06 06:31:24;;;;;;;3.73;2.70;;;10.70;43.30;;;;;;5084913;28;46325;-64
2023/03/06 06:33:51;;;;;;;3.87;2.70;;;10.70;43.30;;;;;;5085261;28;45360;-64
2023/03/06 06:36:18;;;;;;;4.60;2.63;;;10.70;43.30;;;;;;5085397;28;45309;-64
2023/03/06 06:38:45;;;;;;;5.70;2.93;;;10.70;43.30;;;;;;5088280;28;45310;-64
2023/03/06 06:41:12;;;;;;;2.83;2.53;;;10.70;43.30;;;;;;5088641;28;46445;-64
2023/03/06 06:43:41;;;;;;;5.93;3.10;;;10.70;43.30;;;;;;5088703;28;45330;-64
2023/03/06 06:46:07;;;;;;;3.17;2.17;;;10.70;43.30;;;;;;5088797;28;45446;-64
2023/03/06 06:48:36;;;;;;;4.83;3.23;;;10.70;43.30;;;;;;5088811;28;45368;-65
2023/03/06 06:51:03;;;;;;;3.83;2.47;;;10.70;43.30;;;;;;5088586;28;47592;-64
2023/03/06 06:53:30;;;;;;;3.00;2.20;;;10.70;43.30;;;;;;5088397;28;45250;-64
2023/03/06 06:55:58;;;;;;;3.93;2.90;;;10.70;43.30;;;;;;5088791;28;45304;-64
2023/03/06 06:58:25;;;;;;;3.83;3.00;;;10.70;43.30;;;;;;5088773;28;45437;-65
2023/03/06 07:00:53;;;;;;;4.80;3.17;;;10.70;43.30;;;;;;5088349;28;45289;-64
2023/03/06 07:03:20;;;;;;;4.50;3.10;;;10.70;43.30;;;;;;5088275;28;45300;-64
2023/03/06 07:05:54;;;;;;;4.00;3.00;;;10.70;43.30;;;;;;5088449;28;45396;-64
2023/03/06 07:08:21;;;;;;;3.80;2.50;;;10.70;43.30;;;;;;5088584;28;45329;-64
2023/03/06 07:10:48;;;;;;;4.20;2.60;;;10.70;43.30;;;;;;5088050;28;46369;-64
2023/03/06 07:13:14;;;;;;;3.10;2.30;;;10.70;43.30;;;;;;5088367;28;45490;-64
2023/03/06 07:15:41;;;;;;;4.53;2.63;;;10.70;43.30;;;;;;5088201;28;45258;-64
2023/03/06 07:18:09;;;;;;;3.03;2.60;;;10.70;43.30;;;;;;5088581;28;45388;-64
2023/03/06 07:20:36;;;;;;;4.43;2.73;;;10.70;43.30;;;;;;5088058;28;45412;-64
2023/03/06 07:23:03;;;;;;;5.20;2.87;;;10.70;43.30;;;;;;5087972;28;45418;-64
2023/03/06 07:25:30;;;;;;;3.93;2.57;;;10.70;43.30;;;;;;5088348;28;45329;-64
2023/03/06 07:27:57;;;;;;;3.73;2.70;;;10.70;43.20;;;;;;5088181;28;45309;-64
2023/03/06 07:30:24;;;;;;;3.63;2.70;;;10.70;43.20;;;;;;5087844;28;46379;-64
2023/03/06 07:32:53;;;;;;;3.90;2.73;;;10.70;43.30;;;;;;5087897;28;45470;-64
2023/03/06 07:35:21;;;;;;;3.97;2.77;;;10.70;43.30;;;;;;5088294;28;45388;-64
2023/03/06 07:37:48;;;;;;;4.47;2.83;;;10.70;43.30;;;;;;5088203;28;45284;-64
2023/03/06 07:40:15;;;;;;;5.07;2.73;;;10.70;43.30;;;;;;5087636;28;46732;-65
2023/03/06 07:42:42;;;;;;;4.87;2.73;;;10.70;43.30;;;;;;5087699;28;45309;-64
2023/03/06 07:45:11;;;;;;;5.00;3.03;;;10.70;43.20;;;;;;5088002;28;45403;-64
2023/03/06 07:47:37;;;;;;;2.90;2.30;;;10.70;43.30;;;;;;5087743;28;45591;-64
2023/03/06 07:50:06;;;;;;;2.90;2.40;;;10.70;43.20;;;;;;5087457;28;46281;-64
2023/03/06 07:52:34;;;;;;;4.20;2.90;;;10.70;43.20;;;;;;5087381;28;45380;-65
2023/03/06 07:55:01;;;;;;;3.07;2.23;;;10.70;43.20;;;;;;5087604;28;45340;-64
2023/03/06 07:57:28;;;;;;;4.47;2.60;;;10.70;43.20;;;;;;5087804;28;45251;-64
2023/03/06 07:59:55;;;;;;;6.03;3.00;;;10.70;43.20;;;;;;5087504;28;45309;-64
2023/03/06 08:02:22;;;;;;;3.97;2.60;;;10.70;43.20;;;;;;5087309;28;45346;-64
2023/03/06 08:04:52;;;;;;;2.83;2.13;;;10.70;43.20;;;;;;5087389;28;45418;-64
2023/03/06 08:07:19;;;;;;;3.60;2.37;;;10.70;43.20;;;;;;5087673;28;45408;-65
2023/03/06 08:09:47;;;;;;;5.40;2.90;;;10.60;43.10;;;;;;5087262;28;47299;-65
2023/03/06 08:12:14;;;;;;;4.60;2.47;;;10.60;43.20;;;;;;5087315;28;45387;-64
2023/03/06 08:14:41;;;;;;;4.00;2.40;;;10.60;43.10;;;;;;5087101;28;45395;-64
2023/03/06 08:17:08;;;;;;;4.07;2.50;;;10.70;43.20;;;;;;5087701;28;45308;-64
2023/03/06 08:19:35;;;;;;;3.90;2.17;;;10.70;43.70;;;;;;5087069;28;45472;-64
2023/03/06 08:22:03;;;;;;;3.00;2.20;;;10.70;43.20;;;;;;5087030;28;45382;-64
2023/03/06 08:24:30;;;;;;;6.03;3.50;;;10.70;43.20;;;;;;5087369;28;45353;-64
2023/03/06 08:26:58;;;;;;;3.33;2.57;;;10.70;43.10;;;;;;5087502;28;45454;-64
2023/03/06 08:29:25;;;;;;;4.30;2.70;;;10.70;43.10;;;;;;5086913;28;45259;-64
2023/03/06 08:31:52;;;;;;;3.87;2.70;;;10.70;43.10;;;;;;5087064;28;45375;-64
2023/03/06 08:34:20;;;;;;;3.27;2.50;;;10.70;43.10;;;;;;5087051;28;45438;-64
2023/03/06 08:36:47;;;;;;;3.93;2.53;;;10.70;43.70;;;;;;5087181;28;45260;-64
2023/03/06 08:39:14;;;;;;;4.43;2.27;;;10.70;43.10;;;;;;5086927;28;45261;-64
2023/03/06 08:41:42;;;;;;;3.23;2.67;;;10.70;43.00;;;;;;5086982;28;45174;-64
2023/03/06 08:44:10;;;;;;;4.07;2.70;;;10.70;43.00;;;;;;5086997;28;45332;-64
2023/03/06 08:46:37;;;;;;;3.60;2.23;;;10.70;43.00;;;;;;5087302;28;45351;-64
2023/03/06 08:49:04;;;;;;;3.50;2.33;;;10.70;42.90;;;;;;5086506;28;47381;-64
2023/03/06 08:51:30;;;;;;;4.17;2.50;;;10.80;43.00;;;;;;5086592;28;45342;-64
2023/03/06 08:53:57;;;;;;;2.83;2.27;;;10.80;42.90;;;;;;5086931;28;45256;-64
2023/03/06 08:56:25;;;;;;;4.33;2.60;;;10.80;43.50;;;;;;5086994;28;45316;-64
2023/03/06 08:58:52;;;;;;;3.80;2.00;;;10.80;42.90;;;;;;5087049;28;45284;-67
2023/03/06 09:01:21;;;;;;;7.47;3.27;;;10.80;43.10;;;;;;5085901;27;45281;-65
2023/03/06 09:03:48;;;;;;;14.10;3.20;;;10.90;44.50;;;;;;5086448;28;45364;-70
2023/03/06 09:06:15;;;;;;;3.40;2.87;;;10.90;45.20;;;;;;5086649;28;45447;-69
2023/03/06 09:08:43;;;;;;;6.23;3.13;;;11.00;45.00;;;;;;5086682;28;45419;-68
2023/03/06 09:11:10;;;;;;;9.73;4.20;;;11.00;44.70;;;;;;5086417;28;45325;-66
2023/03/06 09:13:37;;;;;;;10.70;5.93;;;11.10;44.70;;;;;;5086670;28;45287;-70
2023/03/06 09:16:04;;;;;;;15.27;7.33;;;11.20;44.80;;;;;;5085739;28;45502;-68
2023/03/06 09:18:35;;;;;;;12.03;5.67;;;11.20;44.80;;;;;;5085098;28;46412;-71
2023/03/06 09:21:02;;;;;;;12.60;5.87;;;11.20;45.30;;;;;;5084910;28;45193;-68
2023/03/06 09:23:29;;;;;;;11.73;5.33;;;11.30;44.50;;;;;;5085254;28;45372;-70
2023/03/06 09:26:00;;;;;;;19.70;7.33;;;11.40;45.10;;;;;;5084998;28;45420;-71
2023/03/06 09:28:26;;;;;;;22.27;8.83;;;11.40;44.70;;;;;;5085575;28;46201;-70
2023/03/06 09:30:53;;;;;;;17.20;8.00;;;11.40;44.90;;;;;;5085575;28;45341;-70
2023/03/06 09:33:20;;;;;;;33.07;10.37;;;11.50;44.80;;;;;;5085525;28;45271;-66
2023/03/06 09:35:50;;;;;;;22.27;9.47;;;11.60;44.70;;;;;;5085763;28;45396;-69
2023/03/06 09:38:17;;;;;;;16.50;7.73;;;11.60;44.60;;;;;;5085080;28;45478;-67
2023/03/06 09:40:50;;;;;;;16.67;7.27;;;11.70;44.90;;;;;;5085327;28;45354;-66
2023/03/06 09:43:20;;;;;;;21.03;6.80;;;11.70;44.60;;;;;;5085345;28;45242;-69
2023/03/06 09:45:46;;;;;;;20.27;7.87;;;11.80;44.70;;;;;;5084818;28;45429;-66
2023/03/06 09:48:13;;;;;;;16.73;7.23;;;11.80;44.50;;;;;;5084377;28;45325;-65
2023/03/06 09:50:42;;;;;;;21.80;7.60;;;11.90;44.40;;;;;;5084265;28;45221;-66
2023/03/06 09:53:19;;;;;;;24.27;7.87;;;11.90;44.10;;;;;;5084684;28;45445;-65
2023/03/06 09:55:46;;;;;;;15.17;6.57;;;11.90;43.90;;;;;;5084881;28;45298;-65
2023/03/06 09:58:16;;;;;;;12.73;7.23;;;11.90;43.70;;;;;;5084532;28;46370;-66
2023/03/06 10:00:46;;;;;;;13.57;6.87;;;11.90;43.60;;;;;;5084447;28;45135;-66
2023/03/06 10:03:17;;;;;;;15.47;6.67;;;12.00;43.60;;;;;;5084350;28;45350;-66
2023/03/06 10:05:46;;;;;;;12.97;6.17;;;12.00;43.50;;;;;;5084691;28;45355;-65
2023/03/06 10:08:21;;;;;;;11.03;5.87;;;12.00;43.40;;;;;;5081836;28;45166;-65
2023/03/06 10:10:50;;;;;;;11.10;6.70;;;12.00;43.20;;;;;;5084241;28;45253;-66
2023/03/06 10:13:19;;;;;;;13.00;6.80;;;12.00;43.20;;;;;;5083372;28;45180;-65
2023/03/06 10:15:46;;;;;;;12.60;6.27;;;12.00;43.10;;;;;;5044993;28;1138173;-67
2023/03/06 10:18:13;;;;;;;13.17;5.90;;;12.00;43.10;;;;;;5085419;28;46386;-65
2023/03/06 10:20:44;;;;;;;11.10;5.87;;;12.00;43.10;;;;;;5085599;28;45351;-65
2023/03/06 10:23:23;;;;;;;13.17;5.87;;;12.00;43.10;;;;;;5085661;28;45535;-65
2023/03/06 10:25:53;;;;;;;11.27;5.60;;;12.10;43.00;;;;;;5085971;28;45362;-66
2023/03/06 10:28:22;;;;;;;11.00;6.33;;;12.10;43.00;;;;;;5085362;28;46275;-66
2023/03/06 10:30:52;;;;;;;13.73;6.30;;;12.10;42.90;;;;;;5085498;28;45304;-66
2023/03/06 10:33:22;;;;;;;8.67;5.67;;;12.10;43.40;;;;;;5085312;28;45324;-66
2023/03/06 10:35:53;;;;;;;11.87;5.30;;;12.20;42.80;;;;;;5085896;28;45527;-65
2023/03/06 10:38:23;;;;;;;7.90;5.17;;;12.20;42.70;;;;;;5085329;28;46514;-65
2023/03/06 10:41:00;;;;;;;9.53;6.10;;;12.20;42.70;;;;;;5085405;28;45257;-66
2023/03/06 10:43:27;;;;;;;10.97;5.90;;;12.20;42.60;;;;;;5085703;28;45189;-66
2023/03/06 10:45:54;;;;;;;12.53;6.30;;;12.20;42.60;;;;;;5085546;28;45430;-66
2023/03/06 10:48:22;;;;;;;11.17;5.70;;;12.20;42.60;;;;;;5085282;28;45222;-66
2023/03/06 10:50:48;;;;;;;8.13;5.27;;;12.20;43.20;;;;;;5082646;28;45269;-65
2023/03/06 10:53:25;;;;;;;9.50;5.77;;;12.20;42.50;;;;;;5074086;28;45257;-68
2023/03/06 10:55:56;;;;;;;8.50;4.60;;;12.20;42.50;;;;;;5070832;28;45471;-65
2023/03/06 10:58:24;;;;;;;9.13;5.03;;;12.20;42.50;;;;;;5073454;28;45514;-65
2023/03/06 11:01:06;;;;;;;12.20;5.73;;;12.20;42.50;;;;;;5077805;28;45262;-66
2023/03/06 11:03:33;;;;;;;9.90;5.00;;;12.20;42.50;;;;;;5084277;28;45355;-66
2023/03/06 11:06:09;;;;;;;9.90;5.50;;;12.20;42.50;;;;;;5082241;28;45281;-66
2023/03/06 11:08:37;;;;;;;7.97;4.90;;;12.20;42.50;;;;;;5079656;28;45627;-66
2023/03/06 11:11:05;;;;;;;8.57;5.00;;;12.20;42.50;;;;;;5073510;28;45426;-67
2023/03/06 11:13:33;;;;;;;7.60;4.90;;;12.20;42.50;;;;;;5067453;28;45447;-67
2023/03/06 11:16:02;;;;;;;8.87;4.90;;;12.20;42.40;;;;;;5075805;28;45329;-71
2023/03/06 11:18:33;;;;;;;5.87;4.30;;;12.20;42.40;;;;;;5076224;28;47992;-67
2023/03/06 11:21:01;;;;;;;8.60;4.97;;;12.20;42.40;;;;;;5073824;28;45203;-66
2023/03/06 11:23:35;;;;;;;9.30;5.47;;;12.30;42.40;;;;;;5072898;28;45618;-66
2023/03/06 11:26:07;;;;;;;7.43;4.93;;;12.30;42.30;;;;;;5068493;28;45450;-66
2023/03/06 11:28:39;;;;;;;7.60;4.27;;;12.30;42.20;;;;;;5076775;28;46247;-66
2023/03/06 11:31:08;;;;;;;8.27;4.47;;;12.30;42.20;;;;;;5075969;28;45634;-66
2023/03/06 11:33:36;;;;;;;8.00;4.70;;;12.40;42.10;;;;;;5072613;28;45274;-66
2023/03/06 11:36:08;;;;;;;8.03;4.03;;;12.40;42.10;;;;;;5068821;28;45183;-66
2023/03/06 11:38:39;;;;;;;7.53;4.67;;;12.50;42.00;;;;;;5078087;27;45360;-67
2023/03/06 11:41:13;;;;;;;8.93;4.80;;;12.50;41.80;;;;;;5087205;27;45409;-67
2023/03/06 11:43:43;;;;;;;9.63;5.17;;;12.50;41.80;;;;;;5083590;28;45395;-66
2023/03/06 11:46:12;;;;;;;10.30;4.60;;;12.60;41.70;;;;;;5083387;28;45479;-66
2023/03/06 11:48:41;;;;;;;7.87;4.93;;;12.60;41.80;;;;;;5078326;27;45538;-66
2023/03/06 11:51:12;;;;;;;8.77;4.07;;;12.50;41.80;;;;;;5076310;27;45417;-67
2023/03/06 11:53:40;;;;;;;8.13;5.33;;;12.50;41.90;;;;;;5073761;28;45365;-66
2023/03/06 11:56:21;;;;;;;7.90;4.73;;;12.50;42.00;;;;;;5078597;28;45375;-67
2023/03/06 11:59:01;;;;;;;6.00;3.83;;;12.50;42.00;;;;;;5078639;28;45524;-66
2023/03/06 12:01:29;;;;;;;9.10;4.73;;;12.50;42.10;;;;;;5077709;28;45478;-66
2023/03/06 12:04:41;;;;;;;6.57;4.20;;;12.50;42.10;;;;;;5073371;28;45521;-66
2023/03/06 12:07:16;;;;;;;8.77;4.50;;;12.50;42.00;;;;;;4997354;28;45692;-66
2023/03/06 12:09:45;;;;;;;6.97;4.17;;;12.50;42.10;;;;;;4997684;28;45460;-66
2023/03/06 12:12:28;;;;;;;6.73;3.77;;;12.50;42.10;;;;;;5052764;27;45350;-68
2023/03/06 12:15:10;;;;;;;6.67;4.20;;;12.50;42.10;;;;;;5077416;28;45464;-66
2023/03/06 12:17:49;;;;;;;6.27;3.90;;;12.50;42.00;;;;;;5085192;27;45432;-66
2023/03/06 12:20:34;;;;;;;5.63;4.03;;;12.60;42.00;;;;;;5077384;28;45518;-66
2023/03/06 12:23:02;;;;;;;5.30;3.83;;;12.60;42.00;;;;;;5076944;28;45306;-67
2023/03/06 12:25:32;;;;;;;8.27;4.70;;;12.60;42.00;;;;;;5076253;28;45283;-66
2023/03/06 12:28:13;;;;;;;6.53;3.90;;;12.60;42.00;;;;;;5087197;28;45392;-66
2023/03/06 12:31:08;;;;;;;6.23;4.00;;;12.60;41.80;;;;;;5071001;28;45506;-66
2023/03/06 12:33:39;;;;;;;6.23;4.07;;;12.60;41.90;;;;;;5053927;28;45373;-66
2023/03/06 12:36:16;;;;;;;5.40;3.83;;;12.60;42.00;;;;;;5074274;27;45549;-66
2023/03/06 12:39:01;;;;;;;7.37;4.40;;;12.60;42.10;;;;;;5068115;28;45435;-66
2023/03/06 12:41:39;;;;;;;5.40;4.00;;;12.60;42.10;;;;;;5067341;28;45738;-66
2023/03/06 12:44:36;;;;;;;6.80;4.37;;;12.60;42.30;;;;;;5077845;28;45519;-66
2023/03/06 12:47:04;;;;;;;5.17;3.67;;;12.50;42.20;;;;;;5074867;28;45411;-68
2023/03/06 12:49:37;;;;;;;4.97;3.60;;;12.50;42.30;;;;;;5079160;28;45325;-67
2023/03/06 12:52:05;;;;;;;9.07;4.47;;;12.50;42.30;;;;;;5080087;28;45323;-65